createdAt,value
2023-04-07T00:00:19.140Z,8.10
2023-04-07T00:02:48.952Z,8.26
2023-04-07T00:05:17.710Z,8.51
2023-04-07T00:07:55.707Z,8.68
2023-04-07T00:10:25.823Z,8.51
2023-04-07T00:12:54.495Z,7.46
2023-04-07T00:15:23.127Z,7.30
2023-04-07T00:17:52.930Z,7.25
2023-04-07T00:20:21.756Z,7.25
2023-04-07T00:22:50.251Z,7.31
2023-04-07T00:25:19.217Z,7.34
2023-04-07T00:27:47.814Z,7.36
2023-04-07T00:30:17.690Z,7.38
2023-04-07T00:32:46.387Z,7.45
2023-04-07T00:35:16.308Z,7.49
2023-04-07T00:37:44.962Z,7.56
2023-04-07T00:40:13.942Z,7.57
2023-04-07T00:42:42.693Z,7.56
2023-04-07T00:45:12.722Z,7.45
2023-04-07T00:47:42.072Z,7.47
2023-04-07T00:50:11.930Z,7.50
2023-04-07T00:52:42.399Z,7.55
2023-04-07T00:55:11.245Z,7.59
2023-04-07T00:57:39.616Z,7.61
2023-04-07T01:00:09.930Z,7.63
2023-04-07T01:02:43.252Z,7.74
2023-04-07T01:05:17.540Z,7.77
2023-04-07T01:07:59.709Z,7.78
2023-04-07T01:10:36.526Z,7.80
2023-04-07T01:13:25.109Z,7.81
2023-04-07T01:16:00.622Z,7.79
2023-04-07T01:18:34.604Z,7.85
2023-04-07T01:21:07.135Z,7.90
2023-04-07T01:24:02.610Z,8.05
2023-04-07T01:26:33.665Z,8.06
2023-04-07T01:29:35.432Z,8.22
2023-04-07T01:32:08.290Z,8.21
2023-04-07T01:34:38.127Z,8.20
2023-04-07T01:37:07.645Z,8.38
2023-04-07T01:39:37.869Z,8.34
2023-04-07T01:42:07.974Z,7.99
2023-04-07T01:44:38.597Z,7.86
2023-04-07T01:47:08.135Z,7.65
2023-04-07T01:49:37.995Z,7.64
2023-04-07T01:52:07.647Z,7.69
2023-04-07T01:54:36.781Z,7.60
2023-04-07T01:57:05.506Z,7.54
2023-04-07T01:59:34.177Z,7.53
2023-04-07T02:02:05.625Z,7.46
2023-04-07T02:04:41.182Z,7.36
2023-04-07T02:07:15.320Z,7.36
2023-04-07T02:09:49.384Z,7.36
2023-04-07T02:12:19.071Z,7.30
2023-04-07T02:14:59.807Z,7.20
2023-04-07T02:17:31.144Z,7.17
2023-04-07T02:20:02.463Z,7.16
2023-04-07T02:22:31.886Z,7.18
2023-04-07T02:25:00.732Z,7.12
2023-04-07T02:27:29.166Z,7.06
2023-04-07T02:29:57.752Z,7.00
2023-04-07T02:32:26.654Z,6.94
2023-04-07T02:34:56.875Z,6.92
2023-04-07T02:37:25.662Z,6.88
2023-04-07T02:39:54.227Z,6.84
2023-04-07T02:42:22.881Z,6.81
2023-04-07T02:44:51.698Z,6.78
2023-04-07T02:47:20.565Z,6.78
2023-04-07T02:49:49.294Z,6.77
2023-04-07T02:52:19.209Z,6.76
2023-04-07T02:54:47.784Z,6.76
2023-04-07T02:57:18.975Z,6.75
2023-04-07T02:59:48.338Z,6.74
2023-04-07T03:02:17.669Z,6.72
2023-04-07T03:04:46.383Z,6.71
2023-04-07T03:07:15.032Z,6.71
2023-04-07T03:09:44.763Z,6.70
2023-04-07T03:12:14.004Z,6.73
2023-04-07T03:14:42.650Z,6.72
2023-04-07T03:17:12.757Z,6.73
2023-04-07T03:19:41.200Z,6.72
2023-04-07T03:22:10.017Z,6.70
2023-04-07T03:24:46.581Z,6.70
2023-04-07T03:27:17.444Z,6.68
2023-04-07T03:29:48.918Z,6.66
2023-04-07T03:32:18.867Z,6.64
2023-04-07T03:34:47.446Z,6.63
2023-04-07T03:37:16.165Z,6.59
2023-04-07T03:39:46.476Z,6.59
2023-04-07T03:42:28.054Z,6.55
2023-04-07T03:45:02.838Z,6.57
2023-04-07T03:47:33.471Z,6.57
2023-04-07T03:50:04.646Z,6.58
2023-04-07T03:52:38.160Z,6.59
2023-04-07T03:55:17.205Z,6.59
2023-04-07T03:57:45.994Z,6.58
2023-04-07T04:00:15.598Z,6.57
2023-04-07T04:03:01.152Z,6.58
2023-04-07T04:05:30.254Z,6.59
2023-04-07T04:07:59.322Z,6.60
2023-04-07T04:10:30.429Z,6.60
2023-04-07T04:13:00.913Z,6.61
2023-04-07T04:15:29.679Z,6.61
2023-04-07T04:17:58.409Z,6.61
2023-04-07T04:20:27.578Z,6.63
2023-04-07T04:22:56.304Z,6.64
2023-04-07T04:25:25.300Z,6.66
2023-04-07T04:27:58.560Z,6.70
2023-04-07T04:30:29.892Z,6.72
2023-04-07T04:33:04.124Z,6.73
2023-04-07T04:35:39.599Z,6.73
2023-04-07T04:38:11.971Z,6.74
2023-04-07T04:40:45.374Z,6.76
2023-04-07T04:43:16.933Z,6.78
2023-04-07T04:45:46.459Z,6.80
2023-04-07T04:48:17.319Z,6.82
2023-04-07T04:50:46.044Z,6.84
2023-04-07T04:53:15.977Z,6.86
2023-04-07T04:55:53.266Z,6.90
2023-04-07T04:58:33.695Z,6.91
2023-04-07T05:01:02.043Z,6.91
2023-04-07T05:03:38.955Z,6.93
2023-04-07T05:06:16.785Z,6.95
2023-04-07T05:08:47.239Z,6.97
2023-04-07T05:11:17.423Z,6.99
2023-04-07T05:13:51.940Z,7.01
2023-04-07T05:16:20.896Z,7.03
2023-04-07T05:18:49.823Z,7.04
2023-04-07T05:21:20.208Z,7.07
2023-04-07T05:23:49.247Z,7.09
2023-04-07T05:26:18.075Z,7.11
2023-04-07T05:28:47.094Z,7.13
2023-04-07T05:31:21.787Z,7.16
2023-04-07T05:33:54.001Z,7.18
2023-04-07T05:36:25.595Z,7.21
2023-04-07T05:38:57.595Z,7.24
2023-04-07T05:41:26.348Z,7.27
2023-04-07T05:43:55.072Z,7.30
2023-04-07T05:46:25.322Z,7.31
2023-04-07T05:48:59.165Z,7.33
2023-04-07T05:51:32.206Z,7.37
2023-04-07T05:54:04.511Z,7.40
2023-04-07T05:56:33.809Z,7.44
2023-04-07T05:59:02.919Z,7.46
2023-04-07T06:01:32.810Z,7.51
2023-04-07T06:04:03.377Z,7.56
2023-04-07T06:06:32.461Z,7.59
2023-04-07T06:09:01.104Z,7.64
2023-04-07T06:11:29.790Z,7.69
2023-04-07T06:13:58.124Z,7.72
2023-04-07T06:16:26.849Z,7.76
2023-04-07T06:18:56.863Z,7.77
2023-04-07T06:21:26.511Z,7.80
2023-04-07T06:23:55.268Z,7.84
2023-04-07T06:26:23.743Z,7.89
2023-04-07T06:28:53.055Z,7.92
2023-04-07T06:31:22.034Z,7.97
2023-04-07T06:33:50.911Z,8.01
2023-04-07T06:36:23.402Z,8.05
2023-04-07T06:38:52.208Z,8.11
2023-04-07T06:41:20.797Z,8.17
2023-04-07T06:43:51.275Z,8.24
2023-04-07T06:46:20.476Z,8.32
2023-04-07T06:48:49.136Z,8.40
2023-04-07T06:51:17.429Z,8.47
2023-04-07T06:53:48.647Z,8.52
2023-04-07T06:56:17.247Z,8.60
2023-04-07T06:58:45.560Z,8.68
2023-04-07T07:01:14.195Z,8.73
2023-04-07T07:03:42.942Z,8.77
2023-04-07T07:06:11.791Z,8.81
2023-04-07T07:08:40.384Z,8.88
2023-04-07T07:11:10.420Z,8.91
2023-04-07T07:13:39.811Z,8.95
2023-04-07T07:16:08.599Z,8.97
2023-04-07T07:18:37.926Z,8.98
2023-04-07T07:21:06.875Z,8.99
2023-04-07T07:23:35.608Z,9.03
2023-04-07T07:26:04.224Z,9.05
2023-04-07T07:28:33.953Z,9.11
2023-04-07T07:31:04.397Z,9.17
2023-04-07T07:33:32.979Z,9.20
2023-04-07T07:36:01.557Z,9.26
2023-04-07T07:38:30.174Z,9.31
2023-04-07T07:40:58.723Z,9.35
2023-04-07T07:43:27.757Z,9.44
2023-04-07T07:45:57.650Z,9.53
2023-04-07T07:48:26.808Z,9.60
2023-04-07T07:50:56.951Z,9.71
2023-04-07T07:53:25.892Z,9.86
2023-04-07T07:55:55.956Z,10.01
2023-04-07T07:58:24.718Z,10.22
2023-04-07T08:00:53.366Z,10.35
2023-04-07T08:03:23.514Z,10.46
2023-04-07T08:05:52.204Z,10.63
2023-04-07T08:08:20.785Z,10.79
2023-04-07T08:10:49.393Z,11.01
2023-04-07T08:13:17.684Z,11.29
2023-04-07T08:15:46.286Z,11.50
2023-04-07T08:18:14.919Z,11.61
2023-04-07T08:20:44.640Z,11.71
2023-04-07T08:23:13.335Z,11.76
2023-04-07T08:25:41.912Z,11.78
2023-04-07T08:28:10.501Z,11.80
2023-04-07T08:30:39.146Z,11.81
2023-04-07T08:33:08.862Z,11.82
2023-04-07T08:35:37.552Z,11.74
2023-04-07T08:38:08.565Z,11.73
2023-04-07T08:40:37.550Z,11.71
2023-04-07T08:43:10.483Z,11.65
2023-04-07T08:45:42.146Z,11.58
2023-04-07T08:48:19.032Z,11.50
2023-04-07T08:50:52.603Z,11.43
2023-04-07T08:53:30.581Z,11.40
2023-04-07T08:55:59.698Z,11.39
2023-04-07T08:58:28.631Z,11.43
2023-04-07T09:00:57.819Z,11.53
2023-04-07T09:03:28.121Z,11.65
2023-04-07T09:05:57.923Z,11.81
2023-04-07T09:08:27.682Z,12.01
2023-04-07T09:10:57.994Z,12.17
2023-04-07T09:13:26.831Z,12.29
2023-04-07T09:15:56.119Z,12.37
2023-04-07T09:18:25.024Z,12.40
2023-04-07T09:21:02.413Z,12.37
2023-04-07T09:23:37.234Z,12.29
2023-04-07T09:26:22.008Z,12.26
2023-04-07T09:28:53.209Z,12.16
2023-04-07T09:31:22.498Z,12.12
2023-04-07T09:33:51.773Z,12.08
2023-04-07T09:36:20.470Z,12.10
2023-04-07T09:38:50.161Z,12.09
2023-04-07T09:41:18.965Z,12.07
2023-04-07T09:43:48.368Z,12.09
2023-04-07T09:46:19.486Z,12.12
2023-04-07T09:48:48.558Z,12.14
2023-04-07T09:51:18.320Z,12.17
2023-04-07T09:53:51.474Z,12.15
2023-04-07T09:56:22.406Z,12.10
2023-04-07T09:58:53.072Z,12.06
2023-04-07T10:01:22.899Z,12.05
2023-04-07T10:03:52.863Z,12.03
2023-04-07T10:06:21.774Z,11.98
2023-04-07T10:08:51.613Z,11.96
2023-04-07T10:11:21.040Z,11.85
2023-04-07T10:13:49.954Z,11.78
2023-04-07T10:16:18.979Z,11.71
2023-04-07T10:18:47.853Z,11.66
2023-04-07T10:21:18.171Z,11.59
2023-04-07T10:23:57.851Z,11.50
2023-04-07T10:26:31.402Z,11.46
2023-04-07T10:29:07.086Z,11.48
2023-04-07T10:31:36.408Z,11.51
2023-04-07T10:34:05.817Z,11.49
2023-04-07T10:36:35.378Z,11.43
2023-04-07T10:39:24.269Z,11.45
2023-04-07T10:41:53.292Z,11.50
2023-04-07T10:44:46.646Z,11.47
2023-04-07T10:47:15.330Z,11.46
2023-04-07T10:50:20.378Z,11.45
2023-04-07T10:52:50.687Z,11.42
2023-04-07T10:55:37.967Z,11.36
2023-04-07T10:58:25.459Z,11.31
2023-04-07T11:01:20.797Z,11.25
2023-04-07T11:04:02.464Z,11.12
2023-04-07T11:06:31.516Z,11.07
2023-04-07T11:09:00.147Z,11.08
2023-04-07T11:11:43.451Z,11.04
2023-04-07T11:14:12.134Z,10.95
2023-04-07T11:16:43.258Z,10.95
2023-04-07T11:19:11.872Z,11.00
2023-04-07T11:21:41.058Z,10.99
2023-04-07T11:24:09.706Z,10.98
2023-04-07T11:26:43.645Z,10.95
2023-04-07T11:29:13.451Z,10.96
2023-04-07T11:31:42.034Z,10.99
2023-04-07T11:34:11.175Z,11.02
2023-04-07T11:36:42.704Z,11.06
2023-04-07T11:39:21.274Z,11.11
2023-04-07T11:41:51.992Z,11.19
2023-04-07T11:44:21.008Z,11.25
2023-04-07T11:46:56.838Z,11.23
2023-04-07T11:49:28.033Z,11.24
2023-04-07T11:52:01.778Z,11.26
2023-04-07T11:54:41.169Z,11.35
2023-04-07T11:57:12.803Z,11.39
2023-04-07T11:59:42.437Z,11.46
2023-04-07T12:02:10.814Z,11.53
2023-04-07T12:04:41.359Z,11.63
2023-04-07T12:07:11.159Z,11.71
2023-04-07T12:09:41.010Z,11.75
2023-04-07T12:12:11.083Z,11.74
2023-04-07T12:14:39.861Z,11.78
2023-04-07T12:17:09.452Z,11.84
2023-04-07T12:19:39.428Z,11.97
2023-04-07T12:22:07.731Z,12.06
2023-04-07T12:24:36.445Z,12.12
2023-04-07T12:27:05.227Z,12.15
2023-04-07T12:29:36.594Z,12.12
2023-04-07T12:32:05.484Z,12.08
2023-04-07T12:34:37.375Z,12.09
2023-04-07T12:37:07.227Z,12.10
2023-04-07T12:39:35.940Z,12.19
2023-04-07T12:42:05.132Z,12.31
2023-04-07T12:44:34.778Z,12.47
2023-04-07T12:47:03.361Z,12.63
2023-04-07T12:49:31.980Z,12.70
2023-04-07T12:52:00.586Z,12.81
2023-04-07T12:54:28.880Z,12.90
2023-04-07T12:56:57.250Z,12.98
2023-04-07T12:59:25.731Z,13.06
2023-04-07T13:01:56.341Z,13.08
2023-04-07T13:04:26.928Z,13.07
2023-04-07T13:06:55.810Z,13.07
2023-04-07T13:09:24.115Z,13.12
2023-04-07T13:11:52.759Z,13.12
2023-04-07T13:14:21.352Z,13.07
2023-04-07T13:16:49.790Z,12.99
2023-04-07T13:19:19.571Z,12.88
2023-04-07T13:21:48.555Z,12.74
2023-04-07T13:24:17.310Z,12.67
2023-04-07T13:26:46.400Z,12.62
2023-04-07T13:29:15.014Z,12.55
2023-04-07T13:31:43.610Z,12.49
2023-04-07T13:34:12.223Z,12.40
2023-04-07T13:36:42.970Z,12.30
2023-04-07T13:39:12.188Z,12.23
2023-04-07T13:41:40.788Z,12.16
2023-04-07T13:44:09.506Z,12.08
2023-04-07T13:46:38.237Z,12.04
2023-04-07T13:49:07.501Z,11.99
2023-04-07T13:51:36.099Z,11.94
2023-04-07T13:54:05.914Z,11.88
2023-04-07T13:56:35.570Z,11.87
2023-04-07T13:59:04.540Z,11.89
2023-04-07T14:01:33.890Z,11.95
2023-04-07T14:04:02.868Z,11.99
2023-04-07T14:06:31.701Z,12.06
2023-04-07T14:09:01.102Z,12.09
2023-04-07T14:11:31.060Z,12.13
2023-04-07T14:13:59.847Z,12.12
2023-04-07T14:16:28.530Z,12.08
2023-04-07T14:18:57.206Z,12.04
2023-04-07T14:21:27.445Z,11.93
2023-04-07T14:23:56.257Z,11.85
2023-04-07T14:26:25.127Z,11.77
2023-04-07T14:28:54.788Z,11.75
2023-04-07T14:31:23.432Z,11.79
2023-04-07T14:33:51.988Z,11.77
2023-04-07T14:36:20.722Z,11.79
2023-04-07T14:38:50.808Z,11.83
2023-04-07T14:41:20.201Z,11.87
2023-04-07T14:43:53.655Z,11.97
2023-04-07T14:46:23.797Z,12.06
2023-04-07T14:48:53.541Z,12.20
2023-04-07T14:51:23.232Z,12.36
2023-04-07T14:53:55.760Z,12.52
2023-04-07T14:56:24.759Z,12.59
2023-04-07T14:58:53.379Z,12.66
2023-04-07T15:01:23.237Z,12.76
2023-04-07T15:03:53.639Z,12.87
2023-04-07T15:06:23.489Z,12.91
2023-04-07T15:08:52.066Z,12.89
2023-04-07T15:11:21.561Z,12.81
2023-04-07T15:13:50.755Z,12.69
2023-04-07T15:16:19.783Z,12.57
2023-04-07T15:18:50.101Z,12.47
2023-04-07T15:21:19.118Z,12.37
2023-04-07T15:23:48.094Z,12.28
2023-04-07T15:26:17.024Z,12.24
2023-04-07T15:28:45.338Z,12.18
2023-04-07T15:31:15.313Z,12.16
2023-04-07T15:33:44.804Z,12.11
2023-04-07T15:36:14.455Z,12.09
2023-04-07T15:38:43.112Z,12.13
2023-04-07T15:41:15.201Z,12.21
2023-04-07T15:43:43.830Z,12.25
2023-04-07T15:46:12.442Z,12.27
2023-04-07T15:48:41.132Z,12.27
2023-04-07T15:51:09.715Z,12.25
2023-04-07T15:53:39.442Z,12.19
2023-04-07T15:56:08.364Z,12.15
2023-04-07T15:58:36.900Z,12.09
2023-04-07T16:01:06.097Z,12.08
2023-04-07T16:03:34.787Z,12.06
2023-04-07T16:06:03.426Z,12.07
2023-04-07T16:08:32.071Z,12.09
2023-04-07T16:11:02.060Z,12.19
2023-04-07T16:13:30.633Z,12.46
2023-04-07T16:15:59.246Z,12.66
2023-04-07T16:18:27.571Z,12.73
2023-04-07T16:20:56.172Z,12.74
2023-04-07T16:23:24.747Z,12.73
2023-04-07T16:25:53.346Z,12.72
2023-04-07T16:28:23.055Z,12.74
2023-04-07T16:30:51.649Z,12.78
2023-04-07T16:33:21.001Z,12.80
2023-04-07T16:35:49.599Z,12.86
2023-04-07T16:38:18.176Z,12.91
2023-04-07T16:41:02.679Z,12.93
2023-04-07T16:43:33.404Z,13.01
2023-04-07T16:46:01.854Z,13.27
2023-04-07T16:48:30.738Z,13.58
2023-04-07T16:50:59.024Z,13.84
2023-04-07T16:53:27.367Z,14.06
2023-04-07T16:55:56.439Z,14.08
2023-04-07T16:58:25.039Z,14.06
2023-04-07T17:00:55.012Z,13.96
2023-04-07T17:03:23.738Z,13.75
2023-04-07T17:05:52.403Z,13.52
2023-04-07T17:08:21.193Z,13.30
2023-04-07T17:10:49.460Z,13.15
2023-04-07T17:13:18.047Z,13.03
2023-04-07T17:15:46.733Z,12.95
2023-04-07T17:18:16.461Z,12.87
2023-04-07T17:20:45.022Z,12.78
2023-04-07T17:23:14.222Z,12.67
2023-04-07T17:25:42.996Z,12.52
2023-04-07T17:28:11.333Z,12.44
2023-04-07T17:30:39.966Z,12.33
2023-04-07T17:33:09.084Z,12.24
2023-04-07T17:35:38.883Z,12.14
2023-04-07T17:38:07.324Z,12.03
2023-04-07T17:40:36.152Z,11.98
2023-04-07T17:43:04.774Z,11.92
2023-04-07T17:45:33.093Z,11.86
2023-04-07T17:48:03.583Z,11.79
2023-04-07T17:50:32.621Z,11.69
2023-04-07T17:53:02.364Z,11.60
2023-04-07T17:55:30.955Z,11.50
2023-04-07T17:58:01.022Z,11.39
2023-04-07T18:00:30.596Z,11.32
2023-04-07T18:02:59.560Z,11.25
2023-04-07T18:05:30.842Z,11.19
2023-04-07T18:08:00.812Z,11.14
2023-04-07T18:10:29.947Z,11.10
2023-04-07T18:12:58.601Z,11.07
2023-04-07T18:15:27.709Z,11.04
2023-04-07T18:17:56.418Z,11.02
2023-04-07T18:20:24.898Z,11.00
2023-04-07T18:22:53.605Z,10.97
2023-04-07T18:25:23.668Z,10.95
2023-04-07T18:27:52.357Z,10.94
2023-04-07T18:30:21.355Z,10.91
2023-04-07T18:32:50.113Z,10.89
2023-04-07T18:35:18.717Z,10.88
2023-04-07T18:37:47.353Z,10.87
2023-04-07T18:40:16.203Z,10.86
2023-04-07T18:42:46.366Z,10.84
2023-04-07T18:45:14.996Z,10.81
2023-04-07T18:47:43.327Z,10.77
2023-04-07T18:50:12.029Z,10.73
2023-04-07T18:52:40.620Z,10.69
2023-04-07T18:55:10.866Z,10.68
2023-04-07T18:57:40.267Z,10.64
2023-04-07T19:00:11.234Z,10.62
2023-04-07T19:02:44.354Z,10.61
2023-04-07T19:05:13.416Z,10.60
2023-04-07T19:07:41.719Z,10.59
2023-04-07T19:10:10.994Z,10.57
2023-04-07T19:12:40.003Z,10.54
2023-04-07T19:15:11.304Z,10.52
2023-04-07T19:17:40.183Z,10.49
2023-04-07T19:20:09.819Z,10.47
2023-04-07T19:22:38.437Z,10.42
2023-04-07T19:25:08.313Z,10.39
2023-04-07T19:27:37.057Z,10.34
2023-04-07T19:30:06.799Z,10.30
2023-04-07T19:32:36.585Z,10.26
2023-04-07T19:35:05.412Z,10.23
2023-04-07T19:37:34.513Z,10.20
2023-04-07T19:40:03.708Z,10.19
2023-04-07T19:42:32.535Z,10.16
2023-04-07T19:45:02.344Z,10.16
2023-04-07T19:47:31.194Z,10.13
2023-04-07T19:50:01.371Z,10.13
2023-04-07T19:52:31.326Z,10.09
2023-04-07T19:55:01.071Z,10.06
2023-04-07T19:57:31.095Z,10.03
2023-04-07T19:59:59.473Z,9.98
2023-04-07T20:02:29.010Z,9.93
2023-04-07T20:04:58.427Z,9.88
2023-04-07T20:07:29.243Z,9.84
2023-04-07T20:09:58.258Z,9.81
2023-04-07T20:12:26.874Z,9.81
2023-04-07T20:14:55.373Z,9.78
2023-04-07T20:17:23.972Z,9.78
2023-04-07T20:19:55.920Z,9.78
2023-04-07T20:22:24.502Z,9.76
2023-04-07T20:24:54.169Z,9.74
2023-04-07T20:27:22.848Z,9.73
2023-04-07T20:29:51.709Z,9.73
2023-04-07T20:32:20.374Z,9.74
2023-04-07T20:34:51.554Z,9.73
2023-04-07T20:37:20.541Z,9.74
2023-04-07T20:39:49.293Z,9.73
2023-04-07T20:42:19.008Z,9.73
2023-04-07T20:44:50.171Z,9.70
2023-04-07T20:47:18.803Z,9.69
2023-04-07T20:49:47.652Z,9.67
2023-04-07T20:52:16.614Z,9.66
2023-04-07T20:54:47.588Z,9.63
2023-04-07T20:57:16.194Z,9.58
2023-04-07T20:59:45.865Z,9.55
2023-04-07T21:02:14.667Z,9.51
2023-04-07T21:04:43.412Z,9.47
2023-04-07T21:07:12.004Z,9.41
2023-04-07T21:09:41.367Z,9.33
2023-04-07T21:12:10.867Z,9.26
2023-04-07T21:14:39.140Z,9.21
2023-04-07T21:17:08.830Z,9.14
2023-04-07T21:19:37.232Z,9.09
2023-04-07T21:22:05.958Z,9.05
2023-04-07T21:24:34.630Z,9.00
2023-04-07T21:27:03.267Z,8.95
2023-04-07T21:29:32.690Z,8.92
2023-04-07T21:32:01.053Z,8.87
2023-04-07T21:34:31.005Z,8.84
2023-04-07T21:36:59.623Z,8.78
2023-04-07T21:39:27.984Z,8.74
2023-04-07T21:41:56.937Z,8.69
2023-04-07T21:44:25.609Z,8.66
2023-04-07T21:46:54.344Z,8.62
2023-04-07T21:49:23.025Z,8.60
2023-04-07T21:51:52.827Z,8.58
2023-04-07T21:54:21.567Z,8.58
2023-04-07T21:56:51.583Z,8.59
2023-04-07T21:59:20.154Z,8.60
2023-04-07T22:01:48.837Z,8.61
2023-04-07T22:04:17.806Z,8.60
2023-04-07T22:06:46.442Z,8.60
2023-04-07T22:09:16.427Z,8.58
2023-04-07T22:11:44.753Z,8.55
2023-04-07T22:14:13.373Z,8.56
2023-04-07T22:16:41.672Z,8.54
2023-04-07T22:19:10.335Z,8.53
2023-04-07T22:21:38.887Z,8.52
2023-04-07T22:24:07.215Z,8.52
2023-04-07T22:26:37.565Z,8.53
2023-04-07T22:29:06.235Z,8.54
2023-04-07T22:31:34.876Z,8.56
2023-04-07T22:34:03.689Z,8.59
2023-04-07T22:36:33.488Z,8.61
2023-04-07T22:39:02.092Z,8.64
2023-04-07T22:41:30.398Z,8.68
2023-04-07T22:44:00.137Z,8.71
2023-04-07T22:46:28.545Z,8.74
2023-04-07T22:48:57.621Z,8.74
2023-04-07T22:51:27.061Z,8.77
2023-04-07T22:53:55.534Z,8.80
2023-04-07T22:56:25.374Z,8.82
2023-04-07T22:58:53.948Z,8.85
2023-04-07T23:01:24.087Z,8.86
2023-04-07T23:03:52.765Z,8.88
2023-04-07T23:06:21.047Z,8.87
2023-04-07T23:08:49.872Z,8.91
2023-04-07T23:11:19.148Z,8.93
2023-04-07T23:13:48.356Z,8.95
2023-04-07T23:16:17.293Z,8.97
2023-04-07T23:18:47.169Z,8.98
2023-04-07T23:21:15.936Z,8.98
2023-04-07T23:23:44.518Z,8.99
2023-04-07T23:26:13.083Z,8.98
2023-04-07T23:28:41.644Z,8.99
2023-04-07T23:31:10.511Z,8.98
2023-04-07T23:33:39.092Z,8.97
2023-04-07T23:36:08.926Z,8.96
2023-04-07T23:38:39.509Z,8.97
2023-04-07T23:41:08.522Z,8.97
2023-04-07T23:43:37.099Z,8.95
2023-04-07T23:46:05.533Z,8.98
2023-04-07T23:48:34.142Z,8.98
2023-04-07T23:51:02.736Z,8.97
2023-04-07T23:53:32.974Z,8.96
2023-04-07T23:56:01.672Z,8.97
2023-04-07T23:58:30.407Z,8.98
